Corzuela, Argentina
Current Conditions -  °F | °C
As of 2:00 PM on Friday 19 Dec 2014 (Local Time) from SARE Reporting Station
Few Clouds Few Clouds  
Wind Chill: 90°   Ceiling: Unl
Heat Index: 96°   Visibility: 6mi
Dew Point: 72°   Wind: 5mph
Humidity: 55%   Direction: 90°E
Pressure: 29.68"   Gusts: NA
Location:  26.95°S, 60.97°W
Report Text: SARE 191700Z 09004KT 9999 FEW030 32/22 Q1005
Loading
Personal Weather Stations






























Interactive Weather Map New forecast layout! Learn more

10-Day Weather Forecast

Advertisements
Track Severe Weather on mobile